sensor_id;sensor_type;location;lat;lon;timestamp;temperature;humidity
40952;DHT22;26682;51.660;19.338;2023-04-06T00:02:10;-1.90;99.90
40952;DHT22;26682;51.660;19.338;2023-04-06T00:04:53;-1.90;99.90
40952;DHT22;26682;51.660;19.338;2023-04-06T00:07:36;-2.00;99.90
40952;DHT22;26682;51.660;19.338;2023-04-06T00:10:18;-2.00;99.90
40952;DHT22;26682;51.660;19.338;2023-04-06T00:13:01;-2.00;99.90
40952;DHT22;26682;51.660;19.338;2023-04-06T00:15:43;-2.10;99.90
40952;DHT22;26682;51.660;19.338;2023-04-06T00:18:25;-2.20;99.90
40952;DHT22;26682;51.660;19.338;2023-04-06T00:21:11;-2.20;99.90
40952;DHT22;26682;51.660;19.338;2023-04-06T00:23:55;-2.30;99.90
40952;DHT22;26682;51.660;19.338;2023-04-06T00:26:37;-2.30;99.90
40952;DHT22;26682;51.660;19.338;2023-04-06T00:29:20;-2.30;99.90
40952;DHT22;26682;51.660;19.338;2023-04-06T00:32:03;-2.40;99.90
40952;DHT22;26682;51.660;19.338;2023-04-06T00:34:45;-2.40;99.90
40952;DHT22;26682;51.660;19.338;2023-04-06T00:37:28;-2.40;99.90
40952;DHT22;26682;51.660;19.338;2023-04-06T00:40:10;-2.40;99.90
40952;DHT22;26682;51.660;19.338;2023-04-06T00:42:53;-2.40;99.90
40952;DHT22;26682;51.660;19.338;2023-04-06T00:45:35;-2.40;99.90
40952;DHT22;26682;51.660;19.338;2023-04-06T00:48:18;-2.40;99.90
40952;DHT22;26682;51.660;19.338;2023-04-06T00:51:01;-2.40;99.90
40952;DHT22;26682;51.660;19.338;2023-04-06T00:53:44;-2.40;99.90
40952;DHT22;26682;51.660;19.338;2023-04-06T00:56:27;-2.40;99.90
40952;DHT22;26682;51.660;19.338;2023-04-06T00:59:11;-2.40;99.90
40952;DHT22;26682;51.660;19.338;2023-04-06T01:01:55;-2.50;99.90
40952;DHT22;26682;51.660;19.338;2023-04-06T01:04:48;-2.40;99.90
40952;DHT22;26682;51.660;19.338;2023-04-06T01:07:39;-2.40;99.90
40952;DHT22;26682;51.660;19.338;2023-04-06T01:10:29;-2.50;99.90
40952;DHT22;26682;51.660;19.338;2023-04-06T01:13:26;-2.50;99.90
40952;DHT22;26682;51.660;19.338;2023-04-06T01:16:14;-2.60;99.90
40952;DHT22;26682;51.660;19.338;2023-04-06T01:19:18;-2.60;99.90
40952;DHT22;26682;51.660;19.338;2023-04-06T01:22:05;-2.70;99.90
40952;DHT22;26682;51.660;19.338;2023-04-06T01:24:47;-2.80;99.90
40952;DHT22;26682;51.660;19.338;2023-04-06T01:27:39;-2.80;99.90
40952;DHT22;26682;51.660;19.338;2023-04-06T01:30:27;-2.80;99.90
40952;DHT22;26682;51.660;19.338;2023-04-06T01:33:16;-2.90;99.90
40952;DHT22;26682;51.660;19.338;2023-04-06T01:36:14;-2.90;99.90
40952;DHT22;26682;51.660;19.338;2023-04-06T01:39:00;-2.90;99.90
40952;DHT22;26682;51.660;19.338;2023-04-06T01:41:48;-3.00;99.90
40952;DHT22;26682;51.660;19.338;2023-04-06T01:44:33;-3.00;99.90
40952;DHT22;26682;51.660;19.338;2023-04-06T01:47:22;-3.00;99.90
40952;DHT22;26682;51.660;19.338;2023-04-06T01:50:05;-3.10;99.90
40952;DHT22;26682;51.660;19.338;2023-04-06T01:52:54;-3.10;99.90
40952;DHT22;26682;51.660;19.338;2023-04-06T01:55:39;-3.20;99.90
40952;DHT22;26682;51.660;19.338;2023-04-06T01:58:51;-3.20;99.90
40952;DHT22;26682;51.660;19.338;2023-04-06T02:01:33;-3.30;99.90
40952;DHT22;26682;51.660;19.338;2023-04-06T02:04:16;-3.30;99.90
40952;DHT22;26682;51.660;19.338;2023-04-06T02:07:01;-3.30;99.90
40952;DHT22;26682;51.660;19.338;2023-04-06T02:09:44;-3.30;99.90
40952;DHT22;26682;51.660;19.338;2023-04-06T02:12:36;-3.30;99.90
40952;DHT22;26682;51.660;19.338;2023-04-06T02:15:20;-3.30;99.90
40952;DHT22;26682;51.660;19.338;2023-04-06T02:18:02;-3.40;99.90
40952;DHT22;26682;51.660;19.338;2023-04-06T02:20:45;-3.40;99.90
40952;DHT22;26682;51.660;19.338;2023-04-06T02:23:28;-3.40;99.90
40952;DHT22;26682;51.660;19.338;2023-04-06T02:26:11;-3.50;99.90
40952;DHT22;26682;51.660;19.338;2023-04-06T02:28:54;-3.50;99.90
40952;DHT22;26682;51.660;19.338;2023-04-06T02:31:36;-3.50;99.90
40952;DHT22;26682;51.660;19.338;2023-04-06T02:34:20;-3.50;99.90
40952;DHT22;26682;51.660;19.338;2023-04-06T02:37:05;-3.60;99.90
40952;DHT22;26682;51.660;19.338;2023-04-06T02:39:48;-3.60;99.90
40952;DHT22;26682;51.660;19.338;2023-04-06T02:42:30;-3.60;99.90
40952;DHT22;26682;51.660;19.338;2023-04-06T02:45:14;-3.60;99.90
40952;DHT22;26682;51.660;19.338;2023-04-06T02:48:01;-3.60;99.90
40952;DHT22;26682;51.660;19.338;2023-04-06T02:50:46;-3.70;99.90
40952;DHT22;26682;51.660;19.338;2023-04-06T02:53:28;-3.70;99.90
40952;DHT22;26682;51.660;19.338;2023-04-06T02:56:11;-3.70;99.90
40952;DHT22;26682;51.660;19.338;2023-04-06T02:59:00;-3.70;99.90
40952;DHT22;26682;51.660;19.338;2023-04-06T03:01:46;-3.70;99.90
40952;DHT22;26682;51.660;19.338;2023-04-06T03:04:28;-3.80;99.90
40952;DHT22;26682;51.660;19.338;2023-04-06T03:07:13;-3.80;99.90
40952;DHT22;26682;51.660;19.338;2023-04-06T03:09:56;-3.80;99.90
40952;DHT22;26682;51.660;19.338;2023-04-06T03:12:38;-3.80;99.90
40952;DHT22;26682;51.660;19.338;2023-04-06T03:15:34;-3.80;99.90
40952;DHT22;26682;51.660;19.338;2023-04-06T03:18:26;-3.90;99.90
40952;DHT22;26682;51.660;19.338;2023-04-06T03:21:11;-3.90;99.90
40952;DHT22;26682;51.660;19.338;2023-04-06T03:24:06;-3.90;99.90
40952;DHT22;26682;51.660;19.338;2023-04-06T03:26:48;-3.90;99.90
40952;DHT22;26682;51.660;19.338;2023-04-06T03:29:31;-3.90;99.90
40952;DHT22;26682;51.660;19.338;2023-04-06T03:32:14;-4.00;99.90
40952;DHT22;26682;51.660;19.338;2023-04-06T03:34:56;-4.00;99.90
40952;DHT22;26682;51.660;19.338;2023-04-06T03:37:39;-4.00;99.90
40952;DHT22;26682;51.660;19.338;2023-04-06T03:40:22;-4.00;99.90
40952;DHT22;26682;51.660;19.338;2023-04-06T03:43:04;-4.00;99.90
40952;DHT22;26682;51.660;19.338;2023-04-06T03:45:50;-4.00;99.90
40952;DHT22;26682;51.660;19.338;2023-04-06T03:48:33;-4.00;99.90
40952;DHT22;26682;51.660;19.338;2023-04-06T03:51:19;-3.90;99.90
40952;DHT22;26682;51.660;19.338;2023-04-06T03:54:02;-3.80;99.90
40952;DHT22;26682;51.660;19.338;2023-04-06T03:56:45;-3.70;99.90
40952;DHT22;26682;51.660;19.338;2023-04-06T03:59:28;-3.70;99.90
40952;DHT22;26682;51.660;19.338;2023-04-06T04:02:10;-3.60;99.90
40952;DHT22;26682;51.660;19.338;2023-04-06T04:04:53;-3.60;99.90
40952;DHT22;26682;51.660;19.338;2023-04-06T04:07:36;-3.50;99.90
40952;DHT22;26682;51.660;19.338;2023-04-06T04:10:19;-3.50;99.90
40952;DHT22;26682;51.660;19.338;2023-04-06T04:13:02;-3.30;99.90
40952;DHT22;26682;51.660;19.338;2023-04-06T04:15:45;-3.20;99.90
40952;DHT22;26682;51.660;19.338;2023-04-06T04:18:27;-3.10;99.90
40952;DHT22;26682;51.660;19.338;2023-04-06T04:21:10;-3.00;99.90
40952;DHT22;26682;51.660;19.338;2023-04-06T04:23:54;-2.90;99.90
40952;DHT22;26682;51.660;19.338;2023-04-06T04:26:37;-2.80;99.90
40952;DHT22;26682;51.660;19.338;2023-04-06T04:29:21;-2.70;99.90
40952;DHT22;26682;51.660;19.338;2023-04-06T04:32:06;-2.60;99.90
40952;DHT22;26682;51.660;19.338;2023-04-06T04:34:49;-2.50;99.90
40952;DHT22;26682;51.660;19.338;2023-04-06T04:37:45;-2.40;99.90
40952;DHT22;26682;51.660;19.338;2023-04-06T04:40:28;-2.30;99.90
40952;DHT22;26682;51.660;19.338;2023-04-06T04:43:19;-2.20;99.90
40952;DHT22;26682;51.660;19.338;2023-04-06T04:46:04;-2.10;99.90
40952;DHT22;26682;51.660;19.338;2023-04-06T04:48:58;-2.10;99.90
40952;DHT22;26682;51.660;19.338;2023-04-06T04:51:42;-2.00;99.90
40952;DHT22;26682;51.660;19.338;2023-04-06T04:54:33;-1.90;99.90
40952;DHT22;26682;51.660;19.338;2023-04-06T04:57:16;-1.80;99.90
40952;DHT22;26682;51.660;19.338;2023-04-06T04:59:59;-1.80;99.90
40952;DHT22;26682;51.660;19.338;2023-04-06T05:02:42;-1.70;99.90
40952;DHT22;26682;51.660;19.338;2023-04-06T05:05:32;-1.60;99.90
40952;DHT22;26682;51.660;19.338;2023-04-06T05:08:15;-1.50;99.90
40952;DHT22;26682;51.660;19.338;2023-04-06T05:11:02;-1.40;99.90
40952;DHT22;26682;51.660;19.338;2023-04-06T05:13:49;-1.30;99.90
40952;DHT22;26682;51.660;19.338;2023-04-06T05:16:36;-1.20;99.90
40952;DHT22;26682;51.660;19.338;2023-04-06T05:19:19;-1.10;99.90
40952;DHT22;26682;51.660;19.338;2023-04-06T05:22:02;-1.00;99.90
40952;DHT22;26682;51.660;19.338;2023-04-06T05:24:48;-1.00;99.90
40952;DHT22;26682;51.660;19.338;2023-04-06T05:27:31;-0.90;99.90
40952;DHT22;26682;51.660;19.338;2023-04-06T05:30:17;-0.80;99.90
40952;DHT22;26682;51.660;19.338;2023-04-06T05:33:02;-0.80;99.90
40952;DHT22;26682;51.660;19.338;2023-04-06T05:35:56;-0.70;99.90
40952;DHT22;26682;51.660;19.338;2023-04-06T05:38:39;-0.60;99.90
40952;DHT22;26682;51.660;19.338;2023-04-06T05:41:42;-0.50;99.90
40952;DHT22;26682;51.660;19.338;2023-04-06T05:44:26;-0.50;99.90
40952;DHT22;26682;51.660;19.338;2023-04-06T05:47:17;-0.40;99.90
40952;DHT22;26682;51.660;19.338;2023-04-06T05:50:05;-0.40;99.90
40952;DHT22;26682;51.660;19.338;2023-04-06T05:52:52;-0.40;99.90
40952;DHT22;26682;51.660;19.338;2023-04-06T05:55:37;-0.30;99.90
40952;DHT22;26682;51.660;19.338;2023-04-06T05:58:25;-0.30;99.90
40952;DHT22;26682;51.660;19.338;2023-04-06T06:01:09;-0.20;99.90
40952;DHT22;26682;51.660;19.338;2023-04-06T06:03:57;-0.10;99.90
40952;DHT22;26682;51.660;19.338;2023-04-06T06:06:43;-0.10;99.90
40952;DHT22;26682;51.660;19.338;2023-04-06T06:09:32;0.00;99.90
40952;DHT22;26682;51.660;19.338;2023-04-06T06:12:24;0.10;99.90
40952;DHT22;26682;51.660;19.338;2023-04-06T06:15:07;0.10;99.90
40952;DHT22;26682;51.660;19.338;2023-04-06T06:17:54;0.20;99.90
40952;DHT22;26682;51.660;19.338;2023-04-06T06:20:36;0.20;99.90
40952;DHT22;26682;51.660;19.338;2023-04-06T06:23:20;0.30;99.90
40952;DHT22;26682;51.660;19.338;2023-04-06T06:26:04;0.40;99.90
40952;DHT22;26682;51.660;19.338;2023-04-06T06:28:47;0.40;99.90
40952;DHT22;26682;51.660;19.338;2023-04-06T06:31:29;0.50;99.90
40952;DHT22;26682;51.660;19.338;2023-04-06T06:34:12;0.60;99.90
40952;DHT22;26682;51.660;19.338;2023-04-06T06:36:56;0.70;99.90
40952;DHT22;26682;51.660;19.338;2023-04-06T06:39:39;0.70;99.90
40952;DHT22;26682;51.660;19.338;2023-04-06T06:42:22;0.80;99.90
40952;DHT22;26682;51.660;19.338;2023-04-06T06:45:20;0.80;99.90
40952;DHT22;26682;51.660;19.338;2023-04-06T06:48:03;0.90;99.90
40952;DHT22;26682;51.660;19.338;2023-04-06T06:50:47;1.00;99.90
40952;DHT22;26682;51.660;19.338;2023-04-06T06:53:30;1.00;99.90
40952;DHT22;26682;51.660;19.338;2023-04-06T06:56:15;1.10;99.90
40952;DHT22;26682;51.660;19.338;2023-04-06T06:58:58;1.10;99.90
40952;DHT22;26682;51.660;19.338;2023-04-06T07:01:40;1.10;99.90
40952;DHT22;26682;51.660;19.338;2023-04-06T07:04:23;1.20;99.90
40952;DHT22;26682;51.660;19.338;2023-04-06T07:07:05;1.30;99.90
40952;DHT22;26682;51.660;19.338;2023-04-06T07:09:50;1.40;99.90
40952;DHT22;26682;51.660;19.338;2023-04-06T07:12:33;1.40;99.90
40952;DHT22;26682;51.660;19.338;2023-04-06T07:15:17;1.60;99.90
40952;DHT22;26682;51.660;19.338;2023-04-06T07:18:00;1.60;99.90
40952;DHT22;26682;51.660;19.338;2023-04-06T07:20:43;1.70;99.90
40952;DHT22;26682;51.660;19.338;2023-04-06T07:23:25;1.90;99.90
40952;DHT22;26682;51.660;19.338;2023-04-06T07:26:08;2.00;99.90
40952;DHT22;26682;51.660;19.338;2023-04-06T07:28:52;2.10;99.90
40952;DHT22;26682;51.660;19.338;2023-04-06T07:31:37;2.10;99.90
40952;DHT22;26682;51.660;19.338;2023-04-06T07:34:20;2.10;99.90
40952;DHT22;26682;51.660;19.338;2023-04-06T07:37:04;2.00;99.90
40952;DHT22;26682;51.660;19.338;2023-04-06T07:39:47;2.00;99.90
40952;DHT22;26682;51.660;19.338;2023-04-06T07:42:31;2.20;99.90
40952;DHT22;26682;51.660;19.338;2023-04-06T07:45:16;2.20;99.90
40952;DHT22;26682;51.660;19.338;2023-04-06T07:47:58;2.20;99.90
40952;DHT22;26682;51.660;19.338;2023-04-06T07:50:42;2.30;99.90
40952;DHT22;26682;51.660;19.338;2023-04-06T07:53:28;2.20;99.90
40952;DHT22;26682;51.660;19.338;2023-04-06T07:56:36;2.20;99.90
40952;DHT22;26682;51.660;19.338;2023-04-06T07:59:18;2.40;99.90
40952;DHT22;26682;51.660;19.338;2023-04-06T08:02:01;2.60;99.90
40952;DHT22;26682;51.660;19.338;2023-04-06T08:04:44;2.80;99.90
40952;DHT22;26682;51.660;19.338;2023-04-06T08:07:27;3.00;99.90
40952;DHT22;26682;51.660;19.338;2023-04-06T08:10:09;3.00;99.90
40952;DHT22;26682;51.660;19.338;2023-04-06T08:12:52;3.00;99.90
40952;DHT22;26682;51.660;19.338;2023-04-06T08:15:35;3.10;99.90
40952;DHT22;26682;51.660;19.338;2023-04-06T08:18:18;3.20;99.90
40952;DHT22;26682;51.660;19.338;2023-04-06T08:21:00;3.20;99.90
40952;DHT22;26682;51.660;19.338;2023-04-06T08:23:43;3.30;99.90
40952;DHT22;26682;51.660;19.338;2023-04-06T08:26:26;3.60;99.90
40952;DHT22;26682;51.660;19.338;2023-04-06T08:29:09;3.80;99.90
40952;DHT22;26682;51.660;19.338;2023-04-06T08:31:52;3.70;99.70
40952;DHT22;26682;51.660;19.338;2023-04-06T08:34:34;3.80;99.20
40952;DHT22;26682;51.660;19.338;2023-04-06T08:37:17;3.60;99.10
40952;DHT22;26682;51.660;19.338;2023-04-06T08:39:59;3.50;99.40
40952;DHT22;26682;51.660;19.338;2023-04-06T08:42:52;3.50;99.90
40952;DHT22;26682;51.660;19.338;2023-04-06T08:45:37;3.50;98.90
40952;DHT22;26682;51.660;19.338;2023-04-06T08:48:21;3.60;98.70
40952;DHT22;26682;51.660;19.338;2023-04-06T08:51:03;3.70;98.00
40952;DHT22;26682;51.660;19.338;2023-04-06T08:53:47;3.70;98.20
40952;DHT22;26682;51.660;19.338;2023-04-06T08:56:31;3.80;97.40
40952;DHT22;26682;51.660;19.338;2023-04-06T08:59:13;3.90;97.30
40952;DHT22;26682;51.660;19.338;2023-04-06T09:01:56;3.80;96.90
40952;DHT22;26682;51.660;19.338;2023-04-06T09:04:40;3.80;97.90
40952;DHT22;26682;51.660;19.338;2023-04-06T09:07:22;3.90;96.80
40952;DHT22;26682;51.660;19.338;2023-04-06T09:10:06;3.90;97.70
40952;DHT22;26682;51.660;19.338;2023-04-06T09:12:49;3.80;97.20
40952;DHT22;26682;51.660;19.338;2023-04-06T09:15:32;3.90;97.40
40952;DHT22;26682;51.660;19.338;2023-04-06T09:18:28;3.80;97.10
40952;DHT22;26682;51.660;19.338;2023-04-06T09:21:11;3.80;97.20
40952;DHT22;26682;51.660;19.338;2023-04-06T09:24:01;3.80;96.50
40952;DHT22;26682;51.660;19.338;2023-04-06T09:26:46;3.80;97.10
40952;DHT22;26682;51.660;19.338;2023-04-06T09:29:29;3.90;96.60
40952;DHT22;26682;51.660;19.338;2023-04-06T09:32:12;4.10;96.60
40952;DHT22;26682;51.660;19.338;2023-04-06T09:35:08;4.00;95.90
40952;DHT22;26682;51.660;19.338;2023-04-06T09:37:52;4.00;96.30
40952;DHT22;26682;51.660;19.338;2023-04-06T09:40:35;4.10;96.10
40952;DHT22;26682;51.660;19.338;2023-04-06T09:43:27;4.20;95.60
40952;DHT22;26682;51.660;19.338;2023-04-06T09:46:10;4.10;95.40
40952;DHT22;26682;51.660;19.338;2023-04-06T09:48:53;3.80;95.90
40952;DHT22;26682;51.660;19.338;2023-04-06T09:51:47;3.90;96.10
40952;DHT22;26682;51.660;19.338;2023-04-06T09:54:31;4.00;96.50
40952;DHT22;26682;51.660;19.338;2023-04-06T10:00:23;4.10;96.50
40952;DHT22;26682;51.660;19.338;2023-04-06T10:03:19;4.10;96.00
40952;DHT22;26682;51.660;19.338;2023-04-06T10:06:05;4.30;96.40
40952;DHT22;26682;51.660;19.338;2023-04-06T10:08:51;4.50;95.50
40952;DHT22;26682;51.660;19.338;2023-04-06T10:11:37;4.60;95.80
40952;DHT22;26682;51.660;19.338;2023-04-06T10:14:20;4.50;95.90
40952;DHT22;26682;51.660;19.338;2023-04-06T10:17:04;4.30;95.80
40952;DHT22;26682;51.660;19.338;2023-04-06T10:19:49;4.30;96.50
40952;DHT22;26682;51.660;19.338;2023-04-06T10:25:31;4.10;96.90
40952;DHT22;26682;51.660;19.338;2023-04-06T10:28:14;4.30;96.60
40952;DHT22;26682;51.660;19.338;2023-04-06T10:30:58;4.30;95.90
40952;DHT22;26682;51.660;19.338;2023-04-06T10:33:41;4.20;96.20
40952;DHT22;26682;51.660;19.338;2023-04-06T10:36:26;4.20;96.50
40952;DHT22;26682;51.660;19.338;2023-04-06T10:39:11;4.30;96.40
40952;DHT22;26682;51.660;19.338;2023-04-06T10:41:54;4.00;96.50
40952;DHT22;26682;51.660;19.338;2023-04-06T10:44:42;3.80;97.50
40952;DHT22;26682;51.660;19.338;2023-04-06T10:47:25;4.10;97.80
40952;DHT22;26682;51.660;19.338;2023-04-06T10:50:08;4.20;97.30
40952;DHT22;26682;51.660;19.338;2023-04-06T10:52:59;4.50;97.60
40952;DHT22;26682;51.660;19.338;2023-04-06T10:55:45;4.60;96.90
40952;DHT22;26682;51.660;19.338;2023-04-06T10:58:27;4.30;96.90
40952;DHT22;26682;51.660;19.338;2023-04-06T11:01:11;4.40;97.30
40952;DHT22;26682;51.660;19.338;2023-04-06T11:03:55;4.70;96.90
40952;DHT22;26682;51.660;19.338;2023-04-06T11:06:40;4.70;96.50
40952;DHT22;26682;51.660;19.338;2023-04-06T11:09:27;4.60;96.30
40952;DHT22;26682;51.660;19.338;2023-04-06T11:12:21;4.80;96.20
40952;DHT22;26682;51.660;19.338;2023-04-06T11:15:03;4.80;96.50
40952;DHT22;26682;51.660;19.338;2023-04-06T11:17:46;4.90;96.40
40952;DHT22;26682;51.660;19.338;2023-04-06T11:20:29;4.70;96.30
40952;DHT22;26682;51.660;19.338;2023-04-06T11:23:12;4.70;96.70
40952;DHT22;26682;51.660;19.338;2023-04-06T11:25:54;4.90;96.20
40952;DHT22;26682;51.660;19.338;2023-04-06T11:28:37;4.80;96.30
40952;DHT22;26682;51.660;19.338;2023-04-06T11:31:25;5.00;97.20
40952;DHT22;26682;51.660;19.338;2023-04-06T11:34:15;5.00;96.90
40952;DHT22;26682;51.660;19.338;2023-04-06T11:36:59;4.90;97.30
40952;DHT22;26682;51.660;19.338;2023-04-06T11:39:51;4.70;97.60
40952;DHT22;26682;51.660;19.338;2023-04-06T11:42:34;4.60;97.40
40952;DHT22;26682;51.660;19.338;2023-04-06T11:45:17;4.30;98.10
40952;DHT22;26682;51.660;19.338;2023-04-06T11:48:00;4.00;99.20
40952;DHT22;26682;51.660;19.338;2023-04-06T11:50:46;4.10;99.60
40952;DHT22;26682;51.660;19.338;2023-04-06T11:53:29;4.20;99.10
40952;DHT22;26682;51.660;19.338;2023-04-06T11:56:31;4.10;99.90
40952;DHT22;26682;51.660;19.338;2023-04-06T11:59:13;4.00;99.90
40952;DHT22;26682;51.660;19.338;2023-04-06T12:02:01;4.00;99.90
40952;DHT22;26682;51.660;19.338;2023-04-06T12:04:44;4.00;99.90
40952;DHT22;26682;51.660;19.338;2023-04-06T12:07:28;4.00;99.90
40952;DHT22;26682;51.660;19.338;2023-04-06T12:10:10;3.90;99.90
40952;DHT22;26682;51.660;19.338;2023-04-06T12:12:53;4.00;99.90
40952;DHT22;26682;51.660;19.338;2023-04-06T12:15:35;4.10;99.90
40952;DHT22;26682;51.660;19.338;2023-04-06T12:18:18;4.20;99.90
40952;DHT22;26682;51.660;19.338;2023-04-06T12:21:00;4.20;99.90
40952;DHT22;26682;51.660;19.338;2023-04-06T12:23:46;4.10;99.90
40952;DHT22;26682;51.660;19.338;2023-04-06T12:26:30;4.00;99.90
40952;DHT22;26682;51.660;19.338;2023-04-06T12:29:12;3.80;99.90
40952;DHT22;26682;51.660;19.338;2023-04-06T12:31:55;3.60;99.90
40952;DHT22;26682;51.660;19.338;2023-04-06T12:34:38;3.50;99.90
40952;DHT22;26682;51.660;19.338;2023-04-06T12:37:21;3.50;99.90
40952;DHT22;26682;51.660;19.338;2023-04-06T12:40:04;3.40;99.90
40952;DHT22;26682;51.660;19.338;2023-04-06T12:42:47;3.50;99.90
40952;DHT22;26682;51.660;19.338;2023-04-06T12:45:31;3.50;99.90
40952;DHT22;26682;51.660;19.338;2023-04-06T12:48:13;3.50;99.90
40952;DHT22;26682;51.660;19.338;2023-04-06T12:50:59;3.50;99.90
40952;DHT22;26682;51.660;19.338;2023-04-06T12:53:41;3.40;99.90
40952;DHT22;26682;51.660;19.338;2023-04-06T12:56:26;3.30;99.90
40952;DHT22;26682;51.660;19.338;2023-04-06T12:59:09;3.40;99.90
40952;DHT22;26682;51.660;19.338;2023-04-06T13:01:52;3.40;99.90
40952;DHT22;26682;51.660;19.338;2023-04-06T13:04:34;3.40;99.90
40952;DHT22;26682;51.660;19.338;2023-04-06T13:07:17;3.20;99.90
40952;DHT22;26682;51.660;19.338;2023-04-06T13:10:00;3.10;99.90
40952;DHT22;26682;51.660;19.338;2023-04-06T13:12:42;3.10;99.90
40952;DHT22;26682;51.660;19.338;2023-04-06T13:15:24;3.20;99.90
40952;DHT22;26682;51.660;19.338;2023-04-06T13:18:08;3.20;99.90
40952;DHT22;26682;51.660;19.338;2023-04-06T13:20:51;3.00;99.90
40952;DHT22;26682;51.660;19.338;2023-04-06T13:23:34;3.10;99.90
40952;DHT22;26682;51.660;19.338;2023-04-06T13:26:17;3.20;99.90
40952;DHT22;26682;51.660;19.338;2023-04-06T13:29:00;3.20;99.90
40952;DHT22;26682;51.660;19.338;2023-04-06T13:31:43;3.00;99.90
40952;DHT22;26682;51.660;19.338;2023-04-06T13:34:26;3.00;99.90
40952;DHT22;26682;51.660;19.338;2023-04-06T13:37:12;2.90;99.90
40952;DHT22;26682;51.660;19.338;2023-04-06T13:39:55;3.00;99.90
40952;DHT22;26682;51.660;19.338;2023-04-06T13:42:38;3.00;99.90
40952;DHT22;26682;51.660;19.338;2023-04-06T13:45:23;3.00;99.90
40952;DHT22;26682;51.660;19.338;2023-04-06T13:48:05;2.90;99.90
40952;DHT22;26682;51.660;19.338;2023-04-06T13:50:48;3.00;99.90
40952;DHT22;26682;51.660;19.338;2023-04-06T13:53:31;2.90;99.90
40952;DHT22;26682;51.660;19.338;2023-04-06T13:56:17;2.80;99.90
40952;DHT22;26682;51.660;19.338;2023-04-06T13:59:03;2.60;99.90
40952;DHT22;26682;51.660;19.338;2023-04-06T14:01:47;2.70;99.90
40952;DHT22;26682;51.660;19.338;2023-04-06T14:04:29;2.70;99.90
40952;DHT22;26682;51.660;19.338;2023-04-06T14:07:12;2.70;99.90
40952;DHT22;26682;51.660;19.338;2023-04-06T14:09:55;2.80;99.90
40952;DHT22;26682;51.660;19.338;2023-04-06T14:12:37;2.80;99.90
40952;DHT22;26682;51.660;19.338;2023-04-06T14:15:20;2.80;99.90
40952;DHT22;26682;51.660;19.338;2023-04-06T14:18:04;2.70;99.90
40952;DHT22;26682;51.660;19.338;2023-04-06T14:20:53;2.60;99.90
40952;DHT22;26682;51.660;19.338;2023-04-06T14:23:36;2.60;99.90
40952;DHT22;26682;51.660;19.338;2023-04-06T14:26:19;2.70;99.90
40952;DHT22;26682;51.660;19.338;2023-04-06T14:29:02;2.50;99.90
40952;DHT22;26682;51.660;19.338;2023-04-06T14:31:47;2.50;99.90
40952;DHT22;26682;51.660;19.338;2023-04-06T14:34:30;2.30;99.90
40952;DHT22;26682;51.660;19.338;2023-04-06T14:37:12;2.30;99.90
40952;DHT22;26682;51.660;19.338;2023-04-06T14:39:57;2.30;99.90
40952;DHT22;26682;51.660;19.338;2023-04-06T14:42:39;2.20;99.90
40952;DHT22;26682;51.660;19.338;2023-04-06T14:45:22;2.20;99.90
40952;DHT22;26682;51.660;19.338;2023-04-06T14:48:05;2.10;99.90
40952;DHT22;26682;51.660;19.338;2023-04-06T14:50:52;2.10;99.90
40952;DHT22;26682;51.660;19.338;2023-04-06T14:53:35;2.10;99.90
40952;DHT22;26682;51.660;19.338;2023-04-06T14:56:22;2.10;99.90
40952;DHT22;26682;51.660;19.338;2023-04-06T14:59:05;2.00;99.90
40952;DHT22;26682;51.660;19.338;2023-04-06T15:01:48;2.00;99.90
40952;DHT22;26682;51.660;19.338;2023-04-06T15:04:30;1.90;99.90
40952;DHT22;26682;51.660;19.338;2023-04-06T15:07:16;1.90;99.90
40952;DHT22;26682;51.660;19.338;2023-04-06T15:09:58;1.80;99.90
40952;DHT22;26682;51.660;19.338;2023-04-06T15:12:41;1.80;99.90
40952;DHT22;26682;51.660;19.338;2023-04-06T15:15:23;1.70;99.90
40952;DHT22;26682;51.660;19.338;2023-04-06T15:18:06;1.70;99.90
40952;DHT22;26682;51.660;19.338;2023-04-06T15:20:49;1.60;99.90
40952;DHT22;26682;51.660;19.338;2023-04-06T15:23:31;1.60;99.90
40952;DHT22;26682;51.660;19.338;2023-04-06T15:26:16;1.50;99.90
40952;DHT22;26682;51.660;19.338;2023-04-06T15:29:00;1.40;99.90
40952;DHT22;26682;51.660;19.338;2023-04-06T15:31:43;1.40;99.90
40952;DHT22;26682;51.660;19.338;2023-04-06T15:34:26;1.40;99.90
40952;DHT22;26682;51.660;19.338;2023-04-06T15:37:12;1.40;99.90
40952;DHT22;26682;51.660;19.338;2023-04-06T15:39:55;1.40;99.90
40952;DHT22;26682;51.660;19.338;2023-04-06T15:42:37;1.40;99.90
40952;DHT22;26682;51.660;19.338;2023-04-06T15:45:20;1.30;99.90
40952;DHT22;26682;51.660;19.338;2023-04-06T15:48:03;1.30;99.90
40952;DHT22;26682;51.660;19.338;2023-04-06T15:50:47;1.30;99.90
40952;DHT22;26682;51.660;19.338;2023-04-06T15:53:29;1.30;99.90
40952;DHT22;26682;51.660;19.338;2023-04-06T15:56:13;1.30;99.90
40952;DHT22;26682;51.660;19.338;2023-04-06T15:58:55;1.30;99.90
40952;DHT22;26682;51.660;19.338;2023-04-06T16:01:38;1.30;99.90
40952;DHT22;26682;51.660;19.338;2023-04-06T16:04:23;1.30;99.90
40952;DHT22;26682;51.660;19.338;2023-04-06T16:07:06;1.30;99.90
40952;DHT22;26682;51.660;19.338;2023-04-06T16:09:50;1.30;99.90
40952;DHT22;26682;51.660;19.338;2023-04-06T16:12:33;1.30;99.90
40952;DHT22;26682;51.660;19.338;2023-04-06T16:15:15;1.30;99.90
40952;DHT22;26682;51.660;19.338;2023-04-06T16:17:58;1.30;99.90
40952;DHT22;26682;51.660;19.338;2023-04-06T16:20:41;1.30;99.90
40952;DHT22;26682;51.660;19.338;2023-04-06T16:23:24;1.30;99.90
40952;DHT22;26682;51.660;19.338;2023-04-06T16:26:16;1.30;99.90
40952;DHT22;26682;51.660;19.338;2023-04-06T16:29:03;1.30;99.90
40952;DHT22;26682;51.660;19.338;2023-04-06T16:31:45;1.20;99.90
40952;DHT22;26682;51.660;19.338;2023-04-06T16:34:34;1.20;99.90
40952;DHT22;26682;51.660;19.338;2023-04-06T16:37:17;1.20;99.90
40952;DHT22;26682;51.660;19.338;2023-04-06T16:39:59;1.30;99.90
40952;DHT22;26682;51.660;19.338;2023-04-06T16:42:43;1.30;99.90
40952;DHT22;26682;51.660;19.338;2023-04-06T16:45:28;1.30;99.90
40952;DHT22;26682;51.660;19.338;2023-04-06T16:48:11;1.20;99.90
40952;DHT22;26682;51.660;19.338;2023-04-06T16:50:56;1.20;99.90
40952;DHT22;26682;51.660;19.338;2023-04-06T16:53:38;1.30;99.90
40952;DHT22;26682;51.660;19.338;2023-04-06T16:56:21;1.30;99.90
40952;DHT22;26682;51.660;19.338;2023-04-06T16:59:07;1.30;99.90
40952;DHT22;26682;51.660;19.338;2023-04-06T17:01:49;1.30;99.90
40952;DHT22;26682;51.660;19.338;2023-04-06T17:04:32;1.20;99.90
40952;DHT22;26682;51.660;19.338;2023-04-06T17:07:16;1.20;99.90
40952;DHT22;26682;51.660;19.338;2023-04-06T17:09:59;1.20;99.90
40952;DHT22;26682;51.660;19.338;2023-04-06T17:12:44;1.20;99.90
40952;DHT22;26682;51.660;19.338;2023-04-06T17:15:27;1.10;99.90
40952;DHT22;26682;51.660;19.338;2023-04-06T17:18:11;1.10;99.90
40952;DHT22;26682;51.660;19.338;2023-04-06T17:20:54;1.10;99.90